Time;durP1;ratioP1;P1;durP2;ratioP2;P2;SDS_P1;SDS_P2;PMS_P1;PMS_P2;Temp;Humidity;BMP_temperature;BMP_pressure;BME280_temperature;BME280_humidity;BME280_pressure;Samples;Min_cycle;Max_cycle;Signal;HPM_P1;HPM_P2
2022/01/22 00:01:14;;;;;;;8.95;5.18;;;1.70;99.90;;;;;;6152263;28;20074;-79
2022/01/22 00:04:15;;;;;;;8.73;5.30;;;1.20;99.90;;;;;;6152633;28;20035;-79
2022/01/22 00:07:15;;;;;;;13.85;6.30;;;1.30;99.90;;;;;;6152004;28;20358;-77
2022/01/22 00:10:19;;;;;;;11.00;5.82;;;2.50;99.90;;;;;;6151988;28;20026;-78
2022/01/22 00:16:21;;;;;;;10.37;5.40;;;1.20;99.90;;;;;;6153552;28;20057;-79
2022/01/22 00:19:22;;;;;;;13.52;5.78;;;1.00;99.90;;;;;;6140542;28;20397;-80
2022/01/22 00:22:27;;;;;;;12.95;6.32;;;1.40;99.90;;;;;;6156556;28;20101;-79
2022/01/22 00:25:27;;;;;;;10.50;5.88;;;1.10;99.90;;;;;;6157334;28;20362;-78
2022/01/22 00:28:28;;;;;;;10.07;5.72;;;1.50;99.90;;;;;;6156451;28;20628;-78
2022/01/22 00:31:29;;;;;;;10.85;6.68;;;1.70;99.90;;;;;;6156982;28;20030;-79
2022/01/22 00:34:29;;;;;;;13.27;5.97;;;1.40;99.90;;;;;;6140534;28;20449;-78
2022/01/22 00:37:30;;;;;;;11.35;5.10;;;1.50;99.90;;;;;;6156399;28;20078;-78
2022/01/22 00:40:31;;;;;;;11.07;5.22;;;1.40;99.90;;;;;;6156911;28;20039;-79
2022/01/22 00:43:31;;;;;;;8.10;4.90;;;2.20;99.90;;;;;;6139820;28;20042;-77
2022/01/22 00:46:32;;;;;;;14.10;6.57;;;1.30;99.90;;;;;;6140181;28;20026;-78
2022/01/22 00:49:32;;;;;;;7.93;5.05;;;1.30;99.90;;;;;;6155385;28;20031;-79
2022/01/22 00:52:33;;;;;;;7.97;4.90;;;1.30;99.90;;;;;;6139700;28;20031;-78
2022/01/22 00:55:34;;;;;;;9.85;5.53;;;1.20;99.90;;;;;;6139863;28;20037;-79
2022/01/22 00:58:34;;;;;;;10.57;4.82;;;1.60;99.90;;;;;;6140069;28;20047;-78
2022/01/22 01:01:35;;;;;;;9.95;4.85;;;1.60;99.90;;;;;;6139967;28;20065;-79
2022/01/22 01:04:37;;;;;;;9.13;4.30;;;0.90;99.90;;;;;;6155885;28;20038;-78
2022/01/22 01:07:37;;;;;;;8.85;4.60;;;0.80;99.90;;;;;;6139779;28;20101;-78
2022/01/22 01:10:38;;;;;;;7.63;4.28;;;1.20;99.90;;;;;;6154907;28;20042;-78
2022/01/22 01:13:44;;;;;;;9.00;4.53;;;1.40;99.90;;;;;;6139551;28;20037;-81
2022/01/22 01:36:43;;;;;;;7.75;4.10;;;1.40;99.90;;;;;;6050890;29;20196;-79
2022/01/22 01:39:45;;;;;;;12.02;4.68;;;1.40;99.90;;;;;;6035680;29;20068;-77
2022/01/22 01:45:47;;;;;;;6.38;4.18;;;1.40;99.90;;;;;;6034685;29;20041;-78
2022/01/22 01:48:49;;;;;;;7.75;4.32;;;2.10;99.90;;;;;;6050464;29;20053;-78
2022/01/22 01:51:49;;;;;;;11.05;5.10;;;1.30;99.90;;;;;;6035912;29;20033;-78
2022/01/22 01:55:03;;;;;;;8.52;4.72;;;1.50;99.90;;;;;;6035630;29;20172;-78
2022/01/22 01:58:04;;;;;;;11.65;4.55;;;1.40;99.90;;;;;;6021848;29;20068;-79
2022/01/22 02:01:06;;;;;;;8.75;4.10;;;2.40;99.90;;;;;;6035563;29;20049;-80
2022/01/22 02:04:09;;;;;;;8.23;3.97;;;1.30;99.90;;;;;;6035781;29;20059;-80
2022/01/22 02:07:10;;;;;;;8.27;4.65;;;1.30;99.90;;;;;;6035619;29;20111;-79
2022/01/22 02:10:15;;;;;;;9.13;4.85;;;1.40;99.90;;;;;;6035102;29;20045;-78
2022/01/22 02:23:34;;;;;;;8.45;4.57;;;1.40;99.90;;;;;;6156746;28;20038;-80
2022/01/22 02:26:35;;;;;;;5.75;3.80;;;1.00;99.90;;;;;;6156910;28;20077;-78
2022/01/22 02:29:36;;;;;;;6.85;4.03;;;0.90;99.90;;;;;;6153970;28;20097;-78
2022/01/22 02:35:47;;;;;;;21.15;6.65;;;2.20;99.90;;;;;;6153751;28;20026;-78
2022/01/22 02:38:56;;;;;;;9.68;4.20;;;1.90;99.90;;;;;;6171050;28;20389;-78
2022/01/22 02:41:56;;;;;;;9.35;4.07;;;1.20;99.90;;;;;;6154733;28;20073;-79
2022/01/22 02:44:57;;;;;;;9.10;5.03;;;1.70;99.90;;;;;;6152915;28;20465;-78
2022/01/22 02:47:57;;;;;;;10.80;4.90;;;2.20;99.90;;;;;;6153382;28;20408;-78
2022/01/22 02:50:58;;;;;;;10.55;4.75;;;1.50;99.90;;;;;;6137521;28;20073;-78
2022/01/22 02:54:00;;;;;;;6.75;4.85;;;1.50;99.90;;;;;;6153372;28;20023;-78
2022/01/22 02:57:00;;;;;;;8.00;4.70;;;1.50;99.90;;;;;;6153588;28;20058;-80
2022/01/22 03:00:04;;;;;;;7.28;4.75;;;1.70;99.90;;;;;;6136908;28;20045;-79
2022/01/22 03:03:06;;;;;;;10.05;4.78;;;1.50;99.90;;;;;;6153214;28;20850;-78
2022/01/22 03:06:07;;;;;;;5.80;4.25;;;2.20;99.90;;;;;;6137499;28;20034;-78
2022/01/22 03:09:10;;;;;;;8.63;4.82;;;1.40;99.90;;;;;;6152915;28;20125;-77
2022/01/22 03:18:21;;;;;;;7.13;4.05;;;1.40;99.90;;;;;;6153188;28;20111;-77
2022/01/22 03:27:54;;;;;;;7.10;3.97;;;2.20;99.90;;;;;;6114913;28;20141;-78
2022/01/22 03:30:55;;;;;;;9.77;4.45;;;1.20;99.90;;;;;;6153182;28;20362;-80
2022/01/22 03:33:56;;;;;;;10.88;4.78;;;1.20;99.90;;;;;;6152628;28;20806;-77
2022/01/22 03:36:56;;;;;;;6.30;4.35;;;1.10;99.90;;;;;;6123889;28;20034;-77
2022/01/22 03:39:57;;;;;;;11.40;4.32;;;0.90;99.90;;;;;;6152657;28;20030;-78
2022/01/22 03:42:58;;;;;;;5.40;3.95;;;1.30;99.90;;;;;;6152125;28;20031;-78
2022/01/22 03:45:58;;;;;;;13.82;4.95;;;2.10;99.90;;;;;;6170175;28;20473;-77
2022/01/22 03:48:59;;;;;;;10.60;5.15;;;2.30;99.90;;;;;;6152473;28;20042;-77
2022/01/22 03:52:00;;;;;;;8.63;4.97;;;1.20;99.90;;;;;;6155086;28;20461;-79
2022/01/22 03:55:01;;;;;;;12.18;5.10;;;1.20;99.90;;;;;;6157328;28;20045;-76
2022/01/22 03:58:02;;;;;;;10.38;5.00;;;0.80;99.90;;;;;;6157261;28;20161;-77
2022/01/22 04:04:21;;;;;;;12.68;5.22;;;1.40;99.90;;;;;;6159284;28;20470;-77
2022/01/22 04:10:40;;;;;;;13.82;4.88;;;2.10;99.90;;;;;;6159607;28;20051;-77
2022/01/22 04:13:42;;;;;;;8.82;5.22;;;1.70;99.90;;;;;;6157125;28;20086;-79
2022/01/22 04:16:57;;;;;;;8.00;5.37;;;1.20;99.90;;;;;;6157241;28;20027;-78
2022/01/22 04:29:39;;;;;;;9.35;5.25;;;1.30;99.90;;;;;;6157110;28;20453;-77
2022/01/22 04:32:40;;;;;;;7.55;5.03;;;2.30;99.90;;;;;;6156547;28;20070;-77
2022/01/22 04:35:40;;;;;;;9.27;5.55;;;1.00;99.90;;;;;;6156579;28;20038;-78
2022/01/22 04:38:41;;;;;;;10.32;5.88;;;1.70;99.90;;;;;;6173097;28;20035;-77
2022/01/22 04:41:41;;;;;;;6.43;4.55;;;0.90;99.90;;;;;;6156397;28;20536;-77
2022/01/22 04:44:55;;;;;;;11.57;5.63;;;2.10;99.90;;;;;;6156258;28;20038;-77
2022/01/22 04:48:23;;;;;;;9.73;4.97;;;1.30;99.90;;;;;;6141937;28;20073;-78
2022/01/22 04:57:57;;;;;;;11.05;4.95;;;1.50;99.90;;;;;;6158803;28;20393;-78
2022/01/22 05:00:58;;;;;;;7.97;5.05;;;2.20;99.90;;;;;;6155885;28;20118;-77
2022/01/22 05:03:58;;;;;;;15.40;5.32;;;1.40;99.90;;;;;;6155913;28;20113;-79
2022/01/22 05:06:59;;;;;;;13.07;5.47;;;1.50;99.90;;;;;;6155915;28;20504;-77
2022/01/22 05:10:01;;;;;;;9.98;5.18;;;1.00;99.90;;;;;;6155929;28;20031;-78
2022/01/22 05:13:02;;;;;;;7.43;4.88;;;1.50;99.90;;;;;;6156076;28;20030;-79
2022/01/22 05:16:03;;;;;;;7.25;4.85;;;1.90;99.90;;;;;;6155591;28;20070;-81
2022/01/22 05:19:11;;;;;;;8.27;5.05;;;1.30;99.90;;;;;;6155863;28;20409;-79
2022/01/22 05:25:32;;;;;;;9.30;5.85;;;1.60;99.90;;;;;;6157256;28;20593;-79
2022/01/22 05:38:11;;;;;;;12.40;5.53;;;1.60;99.90;;;;;;6156478;28;20043;-79
2022/01/22 05:41:12;;;;;;;8.70;5.50;;;1.40;99.90;;;;;;6155086;28;20050;-77
2022/01/22 05:44:12;;;;;;;11.80;5.60;;;1.80;99.90;;;;;;6155259;28;20453;-78
2022/01/22 05:47:19;;;;;;;24.33;11.60;;;1.60;99.90;;;;;;6154618;28;20042;-77
2022/01/22 05:50:31;;;;;;;15.07;7.30;;;1.50;99.90;;;;;;6155838;28;20605;-79
2022/01/22 05:59:58;;;;;;;9.30;5.63;;;1.40;99.90;;;;;;6157205;28;20043;-77
2022/01/22 06:02:58;;;;;;;11.77;5.43;;;1.60;99.90;;;;;;6154637;28;20069;-77
2022/01/22 06:06:02;;;;;;;10.07;5.90;;;2.50;99.90;;;;;;6154459;28;20061;-78
2022/01/22 06:09:07;;;;;;;8.32;5.60;;;1.40;99.90;;;;;;6138942;28;20404;-79
2022/01/22 06:15:09;;;;;;;9.65;5.05;;;1.30;99.90;;;;;;6153734;28;20766;-79
2022/01/22 06:18:10;;;;;;;8.70;5.78;;;1.30;99.90;;;;;;6154202;28;20489;-80
2022/01/22 06:21:10;;;;;;;9.40;5.50;;;2.20;99.90;;;;;;6138246;28;20038;-79
2022/01/22 06:24:12;;;;;;;10.77;6.78;;;2.20;99.90;;;;;;6138288;28;20069;-80
2022/01/22 06:27:13;;;;;;;45.95;21.83;;;1.40;99.90;;;;;;6171219;28;20075;-78
2022/01/22 06:30:13;;;;;;;13.95;8.65;;;0.90;99.90;;;;;;6153943;28;20093;-79
2022/01/22 06:33:14;;;;;;;14.00;7.78;;;1.00;99.90;;;;;;6153736;28;20066;-80
2022/01/22 06:36:14;;;;;;;11.07;6.97;;;0.90;99.90;;;;;;6152144;28;20070;-80
2022/01/22 06:39:17;;;;;;;14.57;7.50;;;2.10;99.90;;;;;;6154375;28;20034;-78
2022/01/22 06:42:17;;;;;;;14.55;7.75;;;2.90;99.90;;;;;;6171818;28;20114;-79
2022/01/22 06:45:18;;;;;;;10.98;6.35;;;0.90;99.90;;;;;;6154192;28;20535;-79
2022/01/22 06:48:19;;;;;;;8.70;5.22;;;2.70;99.90;;;;;;6153588;28;20467;-79
2022/01/22 06:51:22;;;;;;;9.95;5.40;;;1.80;99.90;;;;;;6137502;28;20035;-78
2022/01/22 06:54:23;;;;;;;10.75;5.38;;;1.80;99.90;;;;;;6137494;28;20400;-79
2022/01/22 06:57:23;;;;;;;8.95;5.80;;;1.80;99.90;;;;;;6153708;28;20034;-78
2022/01/22 07:00:24;;;;;;;9.32;5.47;;;2.40;99.90;;;;;;6170464;28;20381;-79
2022/01/22 07:03:24;;;;;;;13.43;5.90;;;1.50;99.90;;;;;;6153296;28;20619;-79
2022/01/22 07:06:25;;;;;;;15.05;6.10;;;1.50;99.90;;;;;;6153296;28;20090;-78
2022/01/22 07:09:26;;;;;;;14.85;7.85;;;1.70;99.90;;;;;;6152895;28;20469;-78
2022/01/22 07:12:26;;;;;;;10.88;6.25;;;1.20;99.90;;;;;;6136502;28;20057;-80
2022/01/22 07:15:28;;;;;;;10.77;6.10;;;2.10;99.90;;;;;;6137195;28;20031;-79
2022/01/22 07:18:29;;;;;;;15.38;7.97;;;1.50;99.90;;;;;;6153061;28;20034;-79
2022/01/22 07:21:31;;;;;;;14.20;7.60;;;1.40;99.90;;;;;;6152704;28;20170;-78
2022/01/22 07:24:37;;;;;;;14.32;9.07;;;1.90;99.90;;;;;;6170248;28;20125;-79
2022/01/22 07:27:37;;;;;;;14.07;7.18;;;1.80;99.90;;;;;;6153524;28;20134;-80
2022/01/22 07:30:39;;;;;;;10.05;6.68;;;1.40;99.90;;;;;;6169963;28;20027;-79
2022/01/22 07:33:39;;;;;;;14.02;8.73;;;1.40;99.90;;;;;;6169291;28;20472;-78
2022/01/22 07:36:40;;;;;;;12.80;8.35;;;1.60;99.90;;;;;;6152612;28;20091;-80
2022/01/22 07:39:40;;;;;;;13.35;7.93;;;1.40;99.90;;;;;;6152409;28;20555;-79
2022/01/22 07:42:41;;;;;;;12.32;8.10;;;2.20;99.90;;;;;;6152131;28;20031;-80
2022/01/22 07:45:42;;;;;;;11.40;7.53;;;1.30;99.90;;;;;;6152471;28;20037;-80
2022/01/22 07:48:43;;;;;;;13.18;7.50;;;1.70;99.90;;;;;;6135418;28;20093;-80
2022/01/22 07:51:43;;;;;;;10.30;7.28;;;2.10;99.90;;;;;;6153034;28;20109;-78
2022/01/22 07:54:44;;;;;;;12.65;7.20;;;1.70;99.90;;;;;;6152683;28;20035;-79
2022/01/22 07:57:45;;;;;;;10.18;7.63;;;1.90;99.90;;;;;;6170095;28;20029;-79
2022/01/22 08:00:45;;;;;;;10.43;7.78;;;2.80;99.90;;;;;;6152537;28;20465;-82
2022/01/22 08:03:46;;;;;;;13.98;7.75;;;1.70;99.90;;;;;;6152779;28;20375;-80
2022/01/22 08:06:47;;;;;;;11.65;7.85;;;1.80;99.90;;;;;;6169711;28;20062;-78
2022/01/22 08:09:48;;;;;;;15.77;9.52;;;2.90;99.90;;;;;;6169763;28;20109;-80
2022/01/22 08:12:50;;;;;;;17.33;8.65;;;1.60;99.90;;;;;;6169836;28;20050;-79
2022/01/22 08:15:50;;;;;;;13.43;8.00;;;1.90;99.90;;;;;;6152844;28;20027;-79
2022/01/22 08:18:51;;;;;;;14.32;9.02;;;1.60;99.90;;;;;;6152397;28;20511;-79
2022/01/22 08:21:51;;;;;;;16.15;8.70;;;3.20;99.90;;;;;;6152344;28;20038;-79
2022/01/22 08:24:54;;;;;;;13.30;7.82;;;2.70;99.90;;;;;;6135971;28;20069;-79
2022/01/22 08:31:18;;;;;;;11.80;6.60;;;2.00;99.90;;;;;;6151909;28;20031;-80
2022/01/22 08:37:37;;;;;;;10.38;6.35;;;2.00;99.90;;;;;;6156204;28;20070;-79
2022/01/22 08:40:38;;;;;;;10.73;6.43;;;2.10;99.90;;;;;;6173607;28;20026;-79
2022/01/22 08:43:39;;;;;;;9.25;6.57;;;2.90;99.90;;;;;;6140173;28;20496;-80
2022/01/22 08:46:39;;;;;;;9.63;6.20;;;2.70;99.90;;;;;;6139624;28;20026;-79
2022/01/22 08:49:40;;;;;;;13.18;6.63;;;3.70;99.90;;;;;;6140210;28;20077;-78
2022/01/22 08:52:41;;;;;;;12.10;6.68;;;2.90;99.90;;;;;;6155924;28;20035;-78
2022/01/22 08:55:42;;;;;;;15.77;7.18;;;3.20;99.90;;;;;;6173462;28;20405;-82
2022/01/22 08:58:42;;;;;;;10.25;6.57;;;2.20;99.90;;;;;;6155988;28;20031;-81
2022/01/22 09:01:44;;;;;;;10.90;6.40;;;2.30;99.90;;;;;;6156160;28;20030;-79
2022/01/22 09:04:45;;;;;;;9.85;6.70;;;2.70;99.90;;;;;;6155667;28;20050;-80
2022/01/22 09:07:46;;;;;;;14.43;9.25;;;2.40;99.90;;;;;;6155902;28;20035;-79
2022/01/22 09:10:47;;;;;;;13.45;8.57;;;3.20;99.90;;;;;;6155722;28;20057;-81
2022/01/22 09:13:47;;;;;;;13.00;6.85;;;2.80;99.90;;;;;;6155611;28;20050;-79
2022/01/22 09:16:48;;;;;;;12.07;6.90;;;1.90;99.90;;;;;;6139730;28;20037;-79
2022/01/22 09:19:56;;;;;;;12.07;7.30;;;3.30;99.90;;;;;;6155378;28;20027;-80
2022/01/22 09:22:57;;;;;;;13.32;8.07;;;2.90;99.90;;;;;;6156669;28;20121;-79
2022/01/22 09:25:58;;;;;;;13.20;8.02;;;2.40;99.90;;;;;;6155389;28;20102;-78
2022/01/22 09:29:00;;;;;;;12.18;8.93;;;2.40;99.90;;;;;;6154050;28;20050;-78
2022/01/22 09:32:01;;;;;;;16.37;11.20;;;2.40;99.90;;;;;;6155431;28;20041;-79
2022/01/22 09:35:01;;;;;;;14.80;8.93;;;2.30;99.90;;;;;;6153312;28;20401;-81
2022/01/22 09:38:02;;;;;;;17.38;11.52;;;2.30;99.90;;;;;;6138854;28;20042;-80
2022/01/22 09:41:03;;;;;;;18.45;9.55;;;2.40;99.90;;;;;;6154214;28;20038;-80
2022/01/22 09:44:05;;;;;;;18.48;9.90;;;3.80;99.90;;;;;;6138386;28;20027;-79
2022/01/22 09:47:06;;;;;;;14.57;9.57;;;2.60;99.90;;;;;;6154158;28;20130;-80
2022/01/22 09:50:07;;;;;;;13.65;9.32;;;2.80;99.90;;;;;;6137243;28;20434;-80
2022/01/22 09:53:08;;;;;;;16.63;10.20;;;2.90;99.90;;;;;;6154189;28;20461;-78
2022/01/22 09:56:09;;;;;;;19.05;10.27;;;3.70;99.90;;;;;;6154277;28;20081;-81
2022/01/22 09:59:10;;;;;;;18.50;10.45;;;3.20;99.90;;;;;;6151631;28;20123;-80
2022/01/22 10:02:19;;;;;;;17.55;11.48;;;3.50;99.90;;;;;;6168467;28;20027;-81
2022/01/22 10:05:33;;;;;;;14.82;9.35;;;3.80;99.90;;;;;;6137560;28;20106;-80
2022/01/22 10:08:36;;;;;;;14.40;9.27;;;3.50;99.90;;;;;;6168149;28;20122;-80
2022/01/22 10:11:37;;;;;;;13.55;8.73;;;3.50;99.90;;;;;;6146032;28;20429;-79
2022/01/22 10:15:06;;;;;;;12.02;8.57;;;3.40;99.90;;;;;;6147300;28;20030;-78
2022/01/22 10:18:06;;;;;;;13.85;9.60;;;3.40;99.90;;;;;;6148359;28;21118;-79
2022/01/22 10:21:14;;;;;;;13.43;8.13;;;3.50;99.90;;;;;;6147954;28;20026;-79
2022/01/22 10:24:29;;;;;;;16.17;7.97;;;3.60;99.90;;;;;;6118488;28;20031;-80
2022/01/22 10:27:33;;;;;;;15.95;9.43;;;3.80;99.90;;;;;;6145906;28;20039;-79
2022/01/22 10:30:36;;;;;;;14.35;8.38;;;3.40;99.90;;;;;;6145070;28;20031;-80
2022/01/22 10:33:36;;;;;;;15.85;10.02;;;3.30;99.90;;;;;;6146094;29;20035;-80
2022/01/22 10:36:37;;;;;;;19.35;10.90;;;3.30;99.90;;;;;;6145826;28;20058;-79
2022/01/22 10:39:38;;;;;;;21.98;11.90;;;3.30;99.90;;;;;;6129949;29;20033;-79
2022/01/22 10:42:38;;;;;;;16.10;9.80;;;3.50;99.90;;;;;;6130006;29;20537;-79
2022/01/22 10:45:42;;;;;;;20.35;11.73;;;3.70;99.90;;;;;;6145560;29;20429;-80
2022/01/22 10:48:55;;;;;;;16.92;8.65;;;3.60;99.90;;;;;;6145515;29;20094;-80
2022/01/22 10:51:59;;;;;;;21.25;9.50;;;3.70;99.90;;;;;;6146954;28;20041;-80
2022/01/22 10:55:03;;;;;;;17.05;9.95;;;4.90;99.90;;;;;;6143981;28;20090;-79
2022/01/22 10:58:06;;;;;;;19.80;9.95;;;3.80;99.90;;;;;;6128601;29;20557;-80
2022/01/22 11:01:06;;;;;;;23.70;10.25;;;4.90;99.90;;;;;;6143497;28;20478;-80
2022/01/22 11:04:08;;;;;;;15.32;9.27;;;4.10;99.90;;;;;;6144996;28;20038;-79
2022/01/22 11:07:14;;;;;;;17.25;9.23;;;4.00;99.90;;;;;;6146095;28;20043;-81
2022/01/22 11:10:15;;;;;;;11.75;8.32;;;4.00;99.90;;;;;;6147588;28;20038;-80
2022/01/22 11:13:16;;;;;;;12.68;7.72;;;4.10;99.90;;;;;;6152672;28;20350;-78
2022/01/22 11:16:17;;;;;;;17.77;8.43;;;4.60;99.90;;;;;;6153080;28;20108;-80
2022/01/22 11:19:22;;;;;;;12.13;7.25;;;4.30;99.90;;;;;;6152808;28;20043;-79
2022/01/22 11:22:23;;;;;;;15.82;7.93;;;4.70;99.90;;;;;;6136718;28;20026;-79
2022/01/22 11:25:24;;;;;;;16.60;8.98;;;4.50;99.90;;;;;;6153309;28;20054;-78
2022/01/22 11:28:25;;;;;;;24.55;14.35;;;4.80;99.90;;;;;;6152516;28;20519;-79
2022/01/22 11:31:25;;;;;;;13.13;6.88;;;5.40;99.90;;;;;;6136149;28;20035;-78
2022/01/22 11:34:27;;;;;;;14.93;8.50;;;4.70;99.90;;;;;;6152693;28;20058;-80
2022/01/22 11:37:48;;;;;;;26.92;11.43;;;4.90;99.90;;;;;;6152253;28;20027;-81
2022/01/22 11:41:07;;;;;;;11.73;8.43;;;4.80;99.90;;;;;;6156114;28;20090;-78
2022/01/22 11:44:11;;;;;;;14.55;9.20;;;5.00;99.90;;;;;;6152504;28;20058;-78
2022/01/22 11:47:17;;;;;;;43.53;18.90;;;5.30;99.90;;;;;;6167349;28;20039;-80
2022/01/22 11:50:21;;;;;;;16.30;8.98;;;5.80;99.90;;;;;;6152445;28;20126;-81
2022/01/22 11:53:32;;;;;;;17.77;9.25;;;6.20;99.90;;;;;;6152623;28;20030;-80
2022/01/22 11:56:43;;;;;;;12.82;7.65;;;6.50;99.90;;;;;;6134892;28;20477;-80
2022/01/22 11:59:46;;;;;;;14.02;8.00;;;6.60;99.90;;;;;;6169876;28;20038;-77
2022/01/22 12:03:05;;;;;;;;;;;6.70;99.90;;;;;;6152519;28;20022;-78
2022/01/22 12:06:07;;;;;;;16.45;8.63;;;6.50;99.90;;;;;;6168960;28;19910;-79
2022/01/22 12:09:13;;;;;;;10.13;7.00;;;7.00;99.90;;;;;;6135809;28;20215;-79
2022/01/22 12:15:53;;;;;;;8.70;6.25;;;6.80;99.90;;;;;;6158284;28;20031;-81
2022/01/22 12:19:00;;;;;;;10.18;6.65;;;6.90;99.90;;;;;;6140826;28;20031;-80
2022/01/22 12:22:00;;;;;;;12.07;7.82;;;7.10;99.90;;;;;;6141713;28;20073;-81
2022/01/22 12:25:23;;;;;;;15.02;8.60;;;7.20;99.90;;;;;;6156579;28;20031;-80
2022/01/22 12:28:33;;;;;;;;;;;7.30;99.90;;;;;;6157482;28;20058;-79
2022/01/22 12:31:34;;;;;;;13.82;8.38;;;7.70;99.90;;;;;;6138766;28;20300;-77
2022/01/22 12:35:12;;;;;;;12.98;8.05;;;8.30;99.90;;;;;;6174109;28;20117;-77
2022/01/22 12:38:20;;;;;;;15.15;8.02;;;8.60;99.90;;;;;;6082498;29;20085;-79
2022/01/22 12:44:46;;;;;;;17.08;8.60;;;8.90;99.90;;;;;;6085698;29;20040;-79
2022/01/22 12:47:48;;;;;;;11.43;7.85;;;9.30;99.90;;;;;;6098281;29;20084;-78
2022/01/22 12:50:48;;;;;;;13.63;7.63;;;9.60;99.90;;;;;;6098649;29;20040;-76
2022/01/22 12:53:49;;;;;;;11.85;7.38;;;9.70;99.70;;;;;;6082747;29;20136;-77
2022/01/22 12:56:51;;;;;;;11.75;7.65;;;9.60;99.70;;;;;;6080771;29;20546;-77
2022/01/22 13:00:06;;;;;;;10.55;8.25;;;9.40;99.20;;;;;;6081143;29;20131;-78
2022/01/22 13:03:07;;;;;;;12.05;7.38;;;9.30;98.90;;;;;;6097927;29;20032;-78
2022/01/22 13:06:07;;;;;;;13.05;8.38;;;9.30;98.60;;;;;;6082303;29;20092;-78
2022/01/22 13:09:10;;;;;;;13.02;7.43;;;9.10;98.60;;;;;;6102492;29;20135;-77
2022/01/22 13:12:11;;;;;;;10.02;7.55;;;8.70;97.60;;;;;;6136562;28;20043;-78
2022/01/22 13:15:14;;;;;;;11.82;7.82;;;8.40;98.30;;;;;;6155242;28;20385;-77
2022/01/22 13:18:15;;;;;;;10.30;7.38;;;8.10;98.10;;;;;;6140034;28;20031;-77
2022/01/22 13:21:16;;;;;;;14.68;8.02;;;7.80;99.20;;;;;;6151496;28;20389;-78
2022/01/22 13:24:20;;;;;;;10.98;7.22;;;7.80;99.50;;;;;;6153354;28;20122;-77
2022/01/22 13:27:20;;;;;;;12.63;7.75;;;7.80;99.60;;;;;;6153406;28;20105;-77
2022/01/22 13:30:21;;;;;;;11.40;7.15;;;7.70;99.90;;;;;;6154106;28;20099;-80
2022/01/22 13:37:04;;;;;;;13.38;7.82;;;7.70;99.90;;;;;;6156872;28;20039;-79
2022/01/22 13:40:32;;;;;;;16.42;7.53;;;7.70;99.90;;;;;;6158526;28;20050;-79
2022/01/22 13:50:13;;;;;;;9.13;6.97;;;8.10;99.80;;;;;;6156041;28;20078;-80
2022/01/22 13:53:14;;;;;;;23.25;12.75;;;7.90;99.90;;;;;;6154456;28;20045;-81
2022/01/22 13:56:16;;;;;;;14.68;9.85;;;7.80;99.90;;;;;;6138485;28;20118;-80
2022/01/22 13:59:38;;;;;;;11.65;7.78;;;7.60;99.90;;;;;;6138396;28;20035;-79
2022/01/22 14:05:51;;;;;;;10.30;8.10;;;7.50;99.90;;;;;;6156146;28;20034;-81
2022/01/22 14:08:52;;;;;;;10.10;7.20;;;6.90;99.90;;;;;;6154221;28;20049;-80
2022/01/22 14:12:14;;;;;;;11.63;7.07;;;6.80;99.90;;;;;;6138033;28;20051;-80
2022/01/22 14:15:24;;;;;;;11.25;7.75;;;6.80;99.90;;;;;;6154717;28;20039;-81
2022/01/22 14:18:38;;;;;;;12.48;7.60;;;6.70;99.90;;;;;;6154220;28;20070;-80
2022/01/22 14:21:39;;;;;;;14.43;7.65;;;6.60;99.90;;;;;;6137837;28;20073;-79
2022/01/22 14:24:39;;;;;;;10.73;7.78;;;7.20;99.90;;;;;;6134042;28;20401;-79
2022/01/22 14:27:40;;;;;;;19.70;8.45;;;7.00;99.90;;;;;;6153468;28;20367;-83
2022/01/22 14:30:43;;;;;;;11.43;6.97;;;7.10;99.90;;;;;;6137616;28;20038;-82
2022/01/22 14:33:44;;;;;;;15.30;6.65;;;7.00;99.90;;;;;;6153603;28;20031;-80
2022/01/22 14:36:47;;;;;;;11.82;7.13;;;7.00;99.90;;;;;;6152824;28;20500;-81
2022/01/22 14:46:22;;;;;;;11.60;7.50;;;6.40;99.90;;;;;;6153254;28;20469;-82
2022/01/22 14:49:32;;;;;;;9.40;7.10;;;6.20;99.90;;;;;;6150811;28;20046;-81
2022/01/22 14:52:32;;;;;;;10.60;6.32;;;6.00;99.90;;;;;;6152014;28;20027;-79
2022/01/22 14:55:33;;;;;;;10.85;6.82;;;6.00;99.90;;;;;;6151438;28;20062;-78
2022/01/22 14:58:34;;;;;;;10.55;6.68;;;5.80;99.90;;;;;;6153514;28;20041;-80
2022/01/22 15:01:34;;;;;;;10.07;6.88;;;5.90;99.90;;;;;;6153124;28;20033;-80
2022/01/22 15:04:35;;;;;;;9.45;6.57;;;5.60;99.90;;;;;;6153523;28;20023;-80
2022/01/22 15:07:36;;;;;;;12.27;7.20;;;6.80;99.90;;;;;;6152947;28;20043;-82
2022/01/22 15:10:37;;;;;;;11.60;7.05;;;5.50;99.90;;;;;;6153059;28;20051;-81
2022/01/22 15:13:37;;;;;;;10.15;6.03;;;5.50;99.90;;;;;;6152526;28;20396;-81
2022/01/22 15:16:49;;;;;;;8.30;6.03;;;5.40;99.90;;;;;;6154248;28;20038;-82
2022/01/22 15:19:50;;;;;;;9.80;5.88;;;7.10;99.90;;;;;;6137929;28;20030;-82
2022/01/22 15:22:52;;;;;;;11.77;8.90;;;5.40;99.90;;;;;;6136949;28;20027;-83
2022/01/22 15:25:52;;;;;;;11.98;7.15;;;5.60;99.90;;;;;;6136601;28;20035;-81
2022/01/22 15:28:53;;;;;;;11.77;8.68;;;5.30;99.90;;;;;;6135160;28;20512;-83
2022/01/22 15:34:59;;;;;;;10.15;7.07;;;5.20;99.90;;;;;;6152992;28;20126;-78
2022/01/22 15:38:01;;;;;;;15.98;9.57;;;5.10;99.90;;;;;;6153248;28;20484;-78
2022/01/22 15:41:02;;;;;;;10.68;8.07;;;5.00;99.90;;;;;;6152560;28;20046;-78
2022/01/22 15:44:07;;;;;;;11.90;7.22;;;4.80;99.90;;;;;;6136852;28;20030;-78
2022/01/22 15:47:08;;;;;;;24.88;13.38;;;4.80;99.90;;;;;;6153997;28;20035;-79
2022/01/22 15:50:09;;;;;;;10.52;6.25;;;4.60;99.90;;;;;;6157636;28;20035;-77
2022/01/22 15:53:14;;;;;;;8.18;6.30;;;4.50;99.90;;;;;;6157274;28;20034;-77
2022/01/22 15:56:14;;;;;;;14.95;11.82;;;4.70;99.90;;;;;;6174803;28;20385;-77
2022/01/22 15:59:15;;;;;;;9.55;7.68;;;4.40;99.90;;;;;;6157264;28;20027;-79
2022/01/22 16:02:17;;;;;;;12.27;6.40;;;4.10;99.90;;;;;;6173612;28;20035;-78
2022/01/22 16:05:24;;;;;;;13.05;9.38;;;4.70;99.90;;;;;;6155047;28;20034;-78
2022/01/22 16:08:25;;;;;;;15.52;13.90;;;5.40;99.90;;;;;;6173673;28;20480;-77
2022/01/22 16:11:25;;;;;;;11.18;6.75;;;4.90;99.90;;;;;;6156590;28;20131;-78
2022/01/22 16:14:26;;;;;;;13.65;6.57;;;4.50;99.90;;;;;;6156566;28;20038;-78
2022/01/22 16:17:27;;;;;;;13.30;7.53;;;4.40;99.90;;;;;;6155591;28;20034;-78
2022/01/22 16:20:28;;;;;;;14.30;6.63;;;3.80;99.90;;;;;;6154959;28;20027;-78
2022/01/22 16:23:28;;;;;;;11.95;7.50;;;3.70;99.90;;;;;;6139990;28;20041;-78
2022/01/22 16:26:29;;;;;;;11.82;7.43;;;3.60;99.90;;;;;;6156553;28;20137;-78
2022/01/22 16:29:31;;;;;;;14.73;7.80;;;3.60;99.90;;;;;;6155998;28;20043;-78
2022/01/22 16:32:31;;;;;;;9.65;7.28;;;4.90;99.90;;;;;;6156775;28;20113;-77
2022/01/22 16:35:32;;;;;;;11.95;7.35;;;3.70;99.90;;;;;;6156741;28;20642;-77
2022/01/22 16:38:33;;;;;;;11.15;7.20;;;3.30;99.90;;;;;;6156030;28;20039;-77
2022/01/22 16:41:34;;;;;;;14.48;7.50;;;3.50;99.90;;;;;;6173711;28;20037;-76
2022/01/22 16:44:43;;;;;;;15.15;7.63;;;4.00;99.90;;;;;;6140353;28;20587;-77
2022/01/22 16:54:44;;;;;;;12.05;6.82;;;4.00;99.90;;;;;;6158512;28;20034;-78
2022/01/22 16:57:55;;;;;;;13.68;7.68;;;2.90;99.90;;;;;;6173133;28;20097;-77
2022/01/22 17:00:59;;;;;;;15.85;7.55;;;2.70;99.90;;;;;;6157137;28;20062;-77
2022/01/22 17:04:00;;;;;;;15.27;10.77;;;2.60;99.90;;;;;;6155751;28;20492;-77
2022/01/22 17:07:03;;;;;;;12.95;10.10;;;3.40;99.90;;;;;;6173452;28;20031;-77
2022/01/22 17:10:14;;;;;;;12.50;7.85;;;2.40;99.90;;;;;;6155626;28;20070;-77
2022/01/22 17:16:34;;;;;;;12.25;7.50;;;2.20;99.90;;;;;;6158101;28;20022;-76
2022/01/22 17:19:35;;;;;;;20.75;12.23;;;2.40;99.90;;;;;;6155732;28;20082;-80
2022/01/22 17:22:35;;;;;;;10.38;7.28;;;3.00;99.90;;;;;;6154147;28;20102;-80
2022/01/22 17:25:36;;;;;;;13.15;7.78;;;2.70;99.90;;;;;;6139103;28;20037;-80
2022/01/22 17:28:37;;;;;;;13.95;8.52;;;3.80;99.90;;;;;;6155019;28;20533;-80
2022/01/22 17:31:37;;;;;;;53.40;18.95;;;1.70;99.90;;;;;;6155200;28;20039;-79
2022/01/22 17:34:38;;;;;;;17.98;11.18;;;3.40;99.90;;;;;;6139415;28;20074;-82
2022/01/22 17:37:39;;;;;;;17.95;11.05;;;1.50;99.90;;;;;;6153850;28;20022;-82
2022/01/22 17:40:45;;;;;;;29.50;16.27;;;1.50;99.90;;;;;;6123910;28;20086;-82
2022/01/22 17:43:47;;;;;;;37.33;19.55;;;3.40;99.90;;;;;;6137450;28;20663;-81
2022/01/22 17:46:48;;;;;;;17.38;11.27;;;2.00;99.90;;;;;;6140718;28;20023;-78
2022/01/22 17:49:49;;;;;;;18.77;10.40;;;3.60;99.90;;;;;;6154103;28;20402;-78
2022/01/22 17:52:49;;;;;;;14.85;10.20;;;2.80;99.90;;;;;;6138837;28;20066;-81
2022/01/22 17:55:54;;;;;;;17.70;10.63;;;1.90;99.90;;;;;;6172302;28;20038;-80
2022/01/22 17:58:55;;;;;;;18.75;11.60;;;3.30;99.90;;;;;;6155481;28;20070;-81
2022/01/22 18:01:56;;;;;;;18.63;10.00;;;1.50;99.90;;;;;;6155387;28;20033;-82
2022/01/22 18:04:59;;;;;;;20.95;13.43;;;2.40;99.90;;;;;;6155383;28;20081;-81
2022/01/22 18:08:00;;;;;;;21.05;13.07;;;2.60;99.90;;;;;;6154948;28;20031;-80
2022/01/22 18:11:06;;;;;;;22.48;12.20;;;2.30;99.90;;;;;;6153049;28;20519;-79
2022/01/22 18:14:07;;;;;;;28.48;14.23;;;1.70;99.90;;;;;;6154725;28;20035;-81
2022/01/22 18:17:07;;;;;;;32.42;15.45;;;1.20;99.90;;;;;;6154341;28;20035;-83